sensor_id;sensor_type;location;lat;lon;timestamp;P1;durP1;ratioP1;P2;durP2;ratioP2
74593;SDS011;63097;51.872;4.460;2023-04-03T00:00:27;3.47;;;1.20;;
74593;SDS011;63097;51.872;4.460;2023-04-03T00:02:53;1.48;;;1.05;;
74593;SDS011;63097;51.872;4.460;2023-04-03T00:05:18;2.92;;;1.23;;
74593;SDS011;63097;51.872;4.460;2023-04-03T00:07:43;4.93;;;1.38;;
74593;SDS011;63097;51.872;4.460;2023-04-03T00:10:09;2.15;;;1.20;;
74593;SDS011;63097;51.872;4.460;2023-04-03T00:12:34;5.63;;;1.35;;
74593;SDS011;63097;51.872;4.460;2023-04-03T00:15:00;13.13;;;1.63;;
74593;SDS011;63097;51.872;4.460;2023-04-03T00:17:25;4.22;;;1.33;;
74593;SDS011;63097;51.872;4.460;2023-04-03T00:19:50;3.75;;;1.52;;
74593;SDS011;63097;51.872;4.460;2023-04-03T00:22:15;8.77;;;1.63;;
74593;SDS011;63097;51.872;4.460;2023-04-03T00:24:41;8.52;;;1.65;;
74593;SDS011;63097;51.872;4.460;2023-04-03T00:27:06;8.05;;;1.63;;
74593;SDS011;63097;51.872;4.460;2023-04-03T00:29:31;6.68;;;1.63;;
74593;SDS011;63097;51.872;4.460;2023-04-03T00:31:57;6.20;;;1.60;;
74593;SDS011;63097;51.872;4.460;2023-04-03T00:34:22;6.40;;;1.50;;
74593;SDS011;63097;51.872;4.460;2023-04-03T00:36:47;2.38;;;1.25;;
74593;SDS011;63097;51.872;4.460;2023-04-03T00:39:13;4.65;;;1.65;;
74593;SDS011;63097;51.872;4.460;2023-04-03T00:41:38;8.38;;;1.60;;
74593;SDS011;63097;51.872;4.460;2023-04-03T00:47:11;4.75;;;1.70;;
74593;SDS011;63097;51.872;4.460;2023-04-03T00:49:38;5.72;;;1.45;;
74593;SDS011;63097;51.872;4.460;2023-04-03T00:52:04;10.05;;;1.67;;
74593;SDS011;63097;51.872;4.460;2023-04-03T00:54:33;2.35;;;1.23;;
74593;SDS011;63097;51.872;4.460;2023-04-03T00:57:01;2.28;;;1.40;;
74593;SDS011;63097;51.872;4.460;2023-04-03T00:59:30;3.85;;;1.70;;
74593;SDS011;63097;51.872;4.460;2023-04-03T01:01:59;3.83;;;1.25;;
74593;SDS011;63097;51.872;4.460;2023-04-03T01:04:28;3.45;;;1.55;;
74593;SDS011;63097;51.872;4.460;2023-04-03T01:06:55;3.33;;;1.60;;
74593;SDS011;63097;51.872;4.460;2023-04-03T01:09:23;5.10;;;1.40;;
74593;SDS011;63097;51.872;4.460;2023-04-03T01:11:48;5.15;;;1.83;;
74593;SDS011;63097;51.872;4.460;2023-04-03T01:14:13;5.80;;;1.60;;
74593;SDS011;63097;51.872;4.460;2023-04-03T01:16:39;5.28;;;1.70;;
74593;SDS011;63097;51.872;4.460;2023-04-03T01:19:04;5.10;;;1.83;;
74593;SDS011;63097;51.872;4.460;2023-04-03T01:21:47;3.33;;;1.35;;
74593;SDS011;63097;51.872;4.460;2023-04-03T01:26:51;12.15;;;1.60;;
74593;SDS011;63097;51.872;4.460;2023-04-03T01:29:16;3.58;;;1.60;;
74593;SDS011;63097;51.872;4.460;2023-04-03T01:31:49;3.50;;;1.77;;
74593;SDS011;63097;51.872;4.460;2023-04-03T01:34:15;5.32;;;1.38;;
74593;SDS011;63097;51.872;4.460;2023-04-03T01:36:40;5.65;;;1.75;;
74593;SDS011;63097;51.872;4.460;2023-04-03T01:39:06;4.47;;;1.60;;
74593;SDS011;63097;51.872;4.460;2023-04-03T01:41:32;3.85;;;1.30;;
74593;SDS011;63097;51.872;4.460;2023-04-03T01:43:57;6.22;;;1.70;;
74593;SDS011;63097;51.872;4.460;2023-04-03T01:46:22;4.72;;;1.48;;
74593;SDS011;63097;51.872;4.460;2023-04-03T01:48:48;2.63;;;1.45;;
74593;SDS011;63097;51.872;4.460;2023-04-03T01:51:13;6.60;;;1.77;;
74593;SDS011;63097;51.872;4.460;2023-04-03T01:53:39;4.97;;;1.80;;
74593;SDS011;63097;51.872;4.460;2023-04-03T01:56:04;3.78;;;1.70;;
74593;SDS011;63097;51.872;4.460;2023-04-03T01:58:30;4.95;;;1.63;;
74593;SDS011;63097;51.872;4.460;2023-04-03T02:00:55;6.78;;;1.73;;
74593;SDS011;63097;51.872;4.460;2023-04-03T02:03:21;6.25;;;2.00;;
74593;SDS011;63097;51.872;4.460;2023-04-03T02:05:46;15.32;;;1.92;;
74593;SDS011;63097;51.872;4.460;2023-04-03T02:08:12;6.55;;;1.90;;
74593;SDS011;63097;51.872;4.460;2023-04-03T02:10:37;5.82;;;2.17;;
74593;SDS011;63097;51.872;4.460;2023-04-03T02:13:02;9.13;;;1.92;;
74593;SDS011;63097;51.872;4.460;2023-04-03T02:15:28;5.88;;;1.63;;
74593;SDS011;63097;51.872;4.460;2023-04-03T02:17:53;5.38;;;1.63;;
74593;SDS011;63097;51.872;4.460;2023-04-03T02:20:18;9.38;;;2.20;;
74593;SDS011;63097;51.872;4.460;2023-04-03T02:22:44;6.95;;;1.55;;
74593;SDS011;63097;51.872;4.460;2023-04-03T02:25:09;5.13;;;2.22;;
74593;SDS011;63097;51.872;4.460;2023-04-03T02:27:35;6.70;;;2.08;;
74593;SDS011;63097;51.872;4.460;2023-04-03T02:30:00;7.35;;;1.50;;
74593;SDS011;63097;51.872;4.460;2023-04-03T02:32:26;5.50;;;1.77;;
74593;SDS011;63097;51.872;4.460;2023-04-03T02:34:51;6.15;;;1.50;;
74593;SDS011;63097;51.872;4.460;2023-04-03T02:37:17;7.15;;;2.03;;
74593;SDS011;63097;51.872;4.460;2023-04-03T02:39:42;6.25;;;1.80;;
74593;SDS011;63097;51.872;4.460;2023-04-03T02:42:07;4.05;;;1.80;;
74593;SDS011;63097;51.872;4.460;2023-04-03T02:44:33;5.45;;;2.17;;
74593;SDS011;63097;51.872;4.460;2023-04-03T02:46:58;11.48;;;1.85;;
74593;SDS011;63097;51.872;4.460;2023-04-03T02:49:23;6.03;;;1.65;;
74593;SDS011;63097;51.872;4.460;2023-04-03T02:51:49;7.90;;;2.30;;
74593;SDS011;63097;51.872;4.460;2023-04-03T02:54:14;7.97;;;2.60;;
74593;SDS011;63097;51.872;4.460;2023-04-03T02:56:39;9.43;;;2.20;;
74593;SDS011;63097;51.872;4.460;2023-04-03T02:59:05;4.68;;;2.30;;
74593;SDS011;63097;51.872;4.460;2023-04-03T03:01:30;8.05;;;1.67;;
74593;SDS011;63097;51.872;4.460;2023-04-03T03:03:56;8.68;;;2.38;;
74593;SDS011;63097;51.872;4.460;2023-04-03T03:06:21;8.88;;;2.97;;
74593;SDS011;63097;51.872;4.460;2023-04-03T03:08:46;7.07;;;1.92;;
74593;SDS011;63097;51.872;4.460;2023-04-03T03:11:11;5.82;;;2.10;;
74593;SDS011;63097;51.872;4.460;2023-04-03T03:13:37;6.45;;;1.88;;
74593;SDS011;63097;51.872;4.460;2023-04-03T03:16:02;4.88;;;1.85;;
74593;SDS011;63097;51.872;4.460;2023-04-03T03:18:28;7.30;;;2.25;;
74593;SDS011;63097;51.872;4.460;2023-04-03T03:20:57;4.55;;;2.00;;
74593;SDS011;63097;51.872;4.460;2023-04-03T03:23:25;7.38;;;1.67;;
74593;SDS011;63097;51.872;4.460;2023-04-03T03:25:58;6.65;;;2.15;;
74593;SDS011;63097;51.872;4.460;2023-04-03T03:28:25;6.82;;;2.20;;
74593;SDS011;63097;51.872;4.460;2023-04-03T03:30:51;7.82;;;2.40;;
74593;SDS011;63097;51.872;4.460;2023-04-03T03:33:16;8.63;;;2.17;;
74593;SDS011;63097;51.872;4.460;2023-04-03T03:35:42;5.30;;;2.60;;
74593;SDS011;63097;51.872;4.460;2023-04-03T03:38:08;5.75;;;2.00;;
74593;SDS011;63097;51.872;4.460;2023-04-03T03:40:33;10.05;;;2.17;;
74593;SDS011;63097;51.872;4.460;2023-04-03T03:42:59;14.00;;;2.55;;
74593;SDS011;63097;51.872;4.460;2023-04-03T03:45:24;9.30;;;1.80;;
74593;SDS011;63097;51.872;4.460;2023-04-03T03:47:49;5.50;;;2.28;;
74593;SDS011;63097;51.872;4.460;2023-04-03T03:50:15;8.75;;;2.38;;
74593;SDS011;63097;51.872;4.460;2023-04-03T03:52:40;7.65;;;2.15;;
74593;SDS011;63097;51.872;4.460;2023-04-03T03:55:05;6.55;;;2.60;;
74593;SDS011;63097;51.872;4.460;2023-04-03T03:57:31;14.95;;;2.90;;
74593;SDS011;63097;51.872;4.460;2023-04-03T03:59:56;9.88;;;2.35;;
74593;SDS011;63097;51.872;4.460;2023-04-03T04:02:22;9.98;;;3.30;;
74593;SDS011;63097;51.872;4.460;2023-04-03T04:04:48;5.50;;;2.20;;
74593;SDS011;63097;51.872;4.460;2023-04-03T04:07:13;7.53;;;2.50;;
74593;SDS011;63097;51.872;4.460;2023-04-03T04:09:39;10.20;;;2.63;;
74593;SDS011;63097;51.872;4.460;2023-04-03T04:12:04;7.28;;;2.33;;
74593;SDS011;63097;51.872;4.460;2023-04-03T04:14:29;6.25;;;2.42;;
74593;SDS011;63097;51.872;4.460;2023-04-03T04:16:54;10.80;;;2.85;;
74593;SDS011;63097;51.872;4.460;2023-04-03T04:19:20;7.47;;;2.65;;
74593;SDS011;63097;51.872;4.460;2023-04-03T04:21:45;6.45;;;2.55;;
74593;SDS011;63097;51.872;4.460;2023-04-03T04:24:10;5.25;;;2.20;;
74593;SDS011;63097;51.872;4.460;2023-04-03T04:26:36;7.47;;;2.08;;
74593;SDS011;63097;51.872;4.460;2023-04-03T04:29:01;7.57;;;2.55;;
74593;SDS011;63097;51.872;4.460;2023-04-03T04:31:26;7.20;;;2.55;;
74593;SDS011;63097;51.872;4.460;2023-04-03T04:33:52;12.68;;;2.08;;
74593;SDS011;63097;51.872;4.460;2023-04-03T04:36:18;11.27;;;2.67;;
74593;SDS011;63097;51.872;4.460;2023-04-03T04:38:43;10.18;;;2.65;;
74593;SDS011;63097;51.872;4.460;2023-04-03T04:41:09;4.75;;;2.17;;
74593;SDS011;63097;51.872;4.460;2023-04-03T04:43:34;9.18;;;2.53;;
74593;SDS011;63097;51.872;4.460;2023-04-03T04:46:01;8.05;;;2.72;;
74593;SDS011;63097;51.872;4.460;2023-04-03T04:48:30;7.72;;;2.75;;
74593;SDS011;63097;51.872;4.460;2023-04-03T04:50:56;7.88;;;2.85;;
74593;SDS011;63097;51.872;4.460;2023-04-03T04:53:21;11.13;;;2.83;;
74593;SDS011;63097;51.872;4.460;2023-04-03T04:55:47;7.22;;;2.42;;
74593;SDS011;63097;51.872;4.460;2023-04-03T04:58:12;7.47;;;2.63;;
74593;SDS011;63097;51.872;4.460;2023-04-03T05:00:37;6.30;;;2.70;;
74593;SDS011;63097;51.872;4.460;2023-04-03T05:03:03;7.45;;;2.70;;
74593;SDS011;63097;51.872;4.460;2023-04-03T05:05:28;10.13;;;2.40;;
74593;SDS011;63097;51.872;4.460;2023-04-03T05:07:53;7.30;;;3.13;;
74593;SDS011;63097;51.872;4.460;2023-04-03T05:10:18;9.35;;;3.30;;
74593;SDS011;63097;51.872;4.460;2023-04-03T05:12:44;10.85;;;3.50;;
74593;SDS011;63097;51.872;4.460;2023-04-03T05:15:09;8.23;;;3.20;;
74593;SDS011;63097;51.872;4.460;2023-04-03T05:17:35;6.28;;;2.50;;
74593;SDS011;63097;51.872;4.460;2023-04-03T05:20:00;11.05;;;2.85;;
74593;SDS011;63097;51.872;4.460;2023-04-03T05:22:26;9.02;;;3.22;;
74593;SDS011;63097;51.872;4.460;2023-04-03T05:24:51;8.93;;;3.15;;
74593;SDS011;63097;51.872;4.460;2023-04-03T05:27:17;10.85;;;2.70;;
74593;SDS011;63097;51.872;4.460;2023-04-03T05:29:42;15.07;;;3.22;;
74593;SDS011;63097;51.872;4.460;2023-04-03T05:32:07;14.80;;;3.53;;
74593;SDS011;63097;51.872;4.460;2023-04-03T05:34:33;11.30;;;3.65;;
74593;SDS011;63097;51.872;4.460;2023-04-03T05:36:58;8.50;;;3.30;;
74593;SDS011;63097;51.872;4.460;2023-04-03T05:39:23;10.57;;;3.35;;
74593;SDS011;63097;51.872;4.460;2023-04-03T05:41:49;12.18;;;3.00;;
74593;SDS011;63097;51.872;4.460;2023-04-03T05:44:14;16.48;;;3.30;;
74593;SDS011;63097;51.872;4.460;2023-04-03T05:46:39;7.60;;;3.00;;
74593;SDS011;63097;51.872;4.460;2023-04-03T05:49:05;9.95;;;3.42;;
74593;SDS011;63097;51.872;4.460;2023-04-03T05:51:32;11.02;;;3.70;;
74593;SDS011;63097;51.872;4.460;2023-04-03T05:54:00;10.00;;;3.30;;
74593;SDS011;63097;51.872;4.460;2023-04-03T05:56:31;12.82;;;3.25;;
74593;SDS011;63097;51.872;4.460;2023-04-03T05:58:57;16.38;;;3.70;;
74593;SDS011;63097;51.872;4.460;2023-04-03T06:01:22;5.30;;;3.20;;
74593;SDS011;63097;51.872;4.460;2023-04-03T06:03:47;8.65;;;3.47;;
74593;SDS011;63097;51.872;4.460;2023-04-03T06:06:13;9.25;;;3.55;;
74593;SDS011;63097;51.872;4.460;2023-04-03T06:08:38;11.77;;;2.85;;
74593;SDS011;63097;51.872;4.460;2023-04-03T06:11:04;13.18;;;3.85;;
74593;SDS011;63097;51.872;4.460;2023-04-03T06:13:29;8.57;;;3.03;;
74593;SDS011;63097;51.872;4.460;2023-04-03T06:15:54;11.05;;;3.00;;
74593;SDS011;63097;51.872;4.460;2023-04-03T06:18:20;8.18;;;3.45;;
74593;SDS011;63097;51.872;4.460;2023-04-03T06:20:45;12.15;;;2.95;;
74593;SDS011;63097;51.872;4.460;2023-04-03T06:23:10;8.27;;;3.25;;
74593;SDS011;63097;51.872;4.460;2023-04-03T06:25:36;12.77;;;3.15;;
74593;SDS011;63097;51.872;4.460;2023-04-03T06:28:01;9.48;;;2.90;;
74593;SDS011;63097;51.872;4.460;2023-04-03T06:30:26;11.35;;;3.28;;
74593;SDS011;63097;51.872;4.460;2023-04-03T06:32:52;15.25;;;3.72;;
74593;SDS011;63097;51.872;4.460;2023-04-03T06:35:17;10.35;;;2.95;;
74593;SDS011;63097;51.872;4.460;2023-04-03T06:37:42;9.88;;;2.72;;
74593;SDS011;63097;51.872;4.460;2023-04-03T06:40:11;8.60;;;2.92;;
74593;SDS011;63097;51.872;4.460;2023-04-03T06:42:45;9.82;;;2.67;;
74593;SDS011;63097;51.872;4.460;2023-04-03T06:45:10;7.60;;;2.90;;
74593;SDS011;63097;51.872;4.460;2023-04-03T06:47:36;8.52;;;2.88;;
74593;SDS011;63097;51.872;4.460;2023-04-03T06:50:01;6.63;;;2.75;;
74593;SDS011;63097;51.872;4.460;2023-04-03T06:52:27;7.00;;;2.33;;
74593;SDS011;63097;51.872;4.460;2023-04-03T06:54:52;10.85;;;2.85;;
74593;SDS011;63097;51.872;4.460;2023-04-03T06:57:17;10.50;;;2.75;;
74593;SDS011;63097;51.872;4.460;2023-04-03T06:59:42;4.88;;;2.33;;
74593;SDS011;63097;51.872;4.460;2023-04-03T07:02:09;4.88;;;1.83;;
74593;SDS011;63097;51.872;4.460;2023-04-03T07:04:36;11.93;;;2.90;;
74593;SDS011;63097;51.872;4.460;2023-04-03T07:07:01;11.85;;;2.80;;
74593;SDS011;63097;51.872;4.460;2023-04-03T07:09:27;10.02;;;2.55;;
74593;SDS011;63097;51.872;4.460;2023-04-03T07:11:52;8.50;;;2.53;;
74593;SDS011;63097;51.872;4.460;2023-04-03T07:14:17;9.73;;;2.58;;
74593;SDS011;63097;51.872;4.460;2023-04-03T07:16:42;10.15;;;2.33;;
74593;SDS011;63097;51.872;4.460;2023-04-03T07:19:08;6.57;;;2.38;;
74593;SDS011;63097;51.872;4.460;2023-04-03T07:21:33;7.28;;;2.50;;
74593;SDS011;63097;51.872;4.460;2023-04-03T07:23:58;11.13;;;2.30;;
74593;SDS011;63097;51.872;4.460;2023-04-03T07:26:24;7.50;;;2.38;;
74593;SDS011;63097;51.872;4.460;2023-04-03T07:28:49;8.48;;;2.40;;
74593;SDS011;63097;51.872;4.460;2023-04-03T07:31:15;9.32;;;1.92;;
74593;SDS011;63097;51.872;4.460;2023-04-03T07:33:41;7.75;;;2.38;;
74593;SDS011;63097;51.872;4.460;2023-04-03T07:36:07;7.60;;;2.38;;
74593;SDS011;63097;51.872;4.460;2023-04-03T07:38:35;11.63;;;3.25;;
74593;SDS011;63097;51.872;4.460;2023-04-03T07:41:01;4.88;;;2.00;;
74593;SDS011;63097;51.872;4.460;2023-04-03T07:43:26;10.25;;;2.33;;
74593;SDS011;63097;51.872;4.460;2023-04-03T07:45:52;9.75;;;2.47;;
74593;SDS011;63097;51.872;4.460;2023-04-03T07:48:18;6.35;;;2.30;;
74593;SDS011;63097;51.872;4.460;2023-04-03T07:50:48;5.15;;;2.05;;
74593;SDS011;63097;51.872;4.460;2023-04-03T07:53:13;13.07;;;2.05;;
74593;SDS011;63097;51.872;4.460;2023-04-03T07:55:39;8.88;;;2.35;;
74593;SDS011;63097;51.872;4.460;2023-04-03T07:58:05;5.63;;;1.67;;
74593;SDS011;63097;51.872;4.460;2023-04-03T08:00:30;10.13;;;2.08;;
74593;SDS011;63097;51.872;4.460;2023-04-03T08:02:55;5.38;;;2.03;;
74593;SDS011;63097;51.872;4.460;2023-04-03T08:05:21;11.50;;;2.35;;
74593;SDS011;63097;51.872;4.460;2023-04-03T08:07:46;6.28;;;2.28;;
74593;SDS011;63097;51.872;4.460;2023-04-03T08:10:12;4.55;;;2.13;;
74593;SDS011;63097;51.872;4.460;2023-04-03T08:12:38;11.50;;;2.08;;
74593;SDS011;63097;51.872;4.460;2023-04-03T08:15:04;7.40;;;2.10;;
74593;SDS011;63097;51.872;4.460;2023-04-03T08:17:30;7.75;;;2.20;;
74593;SDS011;63097;51.872;4.460;2023-04-03T08:19:55;7.25;;;2.30;;
74593;SDS011;63097;51.872;4.460;2023-04-03T08:22:20;10.85;;;1.90;;
74593;SDS011;63097;51.872;4.460;2023-04-03T08:24:46;10.13;;;1.52;;
74593;SDS011;63097;51.872;4.460;2023-04-03T08:27:11;5.72;;;1.50;;
74593;SDS011;63097;51.872;4.460;2023-04-03T08:29:36;13.25;;;2.20;;
74593;SDS011;63097;51.872;4.460;2023-04-03T08:32:02;11.40;;;1.48;;
74593;SDS011;63097;51.872;4.460;2023-04-03T08:34:27;5.47;;;1.90;;
74593;SDS011;63097;51.872;4.460;2023-04-03T08:36:52;4.47;;;1.63;;
74593;SDS011;63097;51.872;4.460;2023-04-03T08:39:18;5.85;;;1.85;;
74593;SDS011;63097;51.872;4.460;2023-04-03T08:41:43;5.93;;;2.00;;
74593;SDS011;63097;51.872;4.460;2023-04-03T08:49:28;10.13;;;2.42;;
74593;SDS011;63097;51.872;4.460;2023-04-03T08:51:57;7.93;;;1.88;;
74593;SDS011;63097;51.872;4.460;2023-04-03T08:54:37;7.38;;;1.48;;
74593;SDS011;63097;51.872;4.460;2023-04-03T08:57:13;12.80;;;1.83;;
74593;SDS011;63097;51.872;4.460;2023-04-03T08:59:38;9.98;;;1.95;;
74593;SDS011;63097;51.872;4.460;2023-04-03T09:02:13;5.80;;;1.88;;
74593;SDS011;63097;51.872;4.460;2023-04-03T09:04:48;5.90;;;1.45;;
74593;SDS011;63097;51.872;4.460;2023-04-03T09:07:20;4.07;;;1.45;;
74593;SDS011;63097;51.872;4.460;2023-04-03T09:09:55;10.40;;;1.77;;
74593;SDS011;63097;51.872;4.460;2023-04-03T09:12:27;5.57;;;1.42;;
74593;SDS011;63097;51.872;4.460;2023-04-03T09:15:21;7.75;;;1.83;;
74593;SDS011;63097;51.872;4.460;2023-04-03T09:23:22;6.68;;;1.58;;
74593;SDS011;63097;51.872;4.460;2023-04-03T09:25:49;4.00;;;1.17;;
74593;SDS011;63097;51.872;4.460;2023-04-03T09:28:19;6.30;;;1.10;;
74593;SDS011;63097;51.872;4.460;2023-04-03T09:30:44;4.90;;;1.10;;
74593;SDS011;63097;51.872;4.460;2023-04-03T09:33:09;11.57;;;1.17;;
74593;SDS011;63097;51.872;4.460;2023-04-03T09:35:36;7.32;;;1.42;;
74593;SDS011;63097;51.872;4.460;2023-04-03T09:40:38;6.07;;;1.20;;
74593;SDS011;63097;51.872;4.460;2023-04-03T09:46:16;6.90;;;0.85;;
74593;SDS011;63097;51.872;4.460;2023-04-03T09:48:52;2.05;;;0.77;;
74593;SDS011;63097;51.872;4.460;2023-04-03T09:51:24;6.75;;;1.10;;
74593;SDS011;63097;51.872;4.460;2023-04-03T09:53:51;4.70;;;1.33;;
74593;SDS011;63097;51.872;4.460;2023-04-03T09:58:42;3.03;;;1.05;;
74593;SDS011;63097;51.872;4.460;2023-04-03T10:04:02;4.85;;;0.73;;
74593;SDS011;63097;51.872;4.460;2023-04-03T10:06:30;1.70;;;0.70;;
74593;SDS011;63097;51.872;4.460;2023-04-03T10:09:03;4.80;;;0.80;;
74593;SDS011;63097;51.872;4.460;2023-04-03T10:14:33;3.28;;;0.80;;
74593;SDS011;63097;51.872;4.460;2023-04-03T10:20:05;4.38;;;1.25;;
74593;SDS011;63097;51.872;4.460;2023-04-03T10:25:20;2.42;;;0.80;;
74593;SDS011;63097;51.872;4.460;2023-04-03T10:27:48;3.28;;;0.68;;
74593;SDS011;63097;51.872;4.460;2023-04-03T10:33:05;1.63;;;0.60;;
74593;SDS011;63097;51.872;4.460;2023-04-03T10:35:44;2.38;;;0.65;;
74593;SDS011;63097;51.872;4.460;2023-04-03T10:46:47;2.13;;;0.50;;
74593;SDS011;63097;51.872;4.460;2023-04-03T10:55:14;3.85;;;0.63;;
74593;SDS011;63097;51.872;4.460;2023-04-03T11:00:23;1.77;;;0.30;;
74593;SDS011;63097;51.872;4.460;2023-04-03T11:02:56;0.45;;;0.25;;
74593;SDS011;63097;51.872;4.460;2023-04-03T11:05:31;2.03;;;0.30;;
74593;SDS011;63097;51.872;4.460;2023-04-03T11:08:07;1.75;;;0.30;;
74593;SDS011;63097;51.872;4.460;2023-04-03T11:10:43;1.67;;;0.45;;
74593;SDS011;63097;51.872;4.460;2023-04-03T11:13:12;0.73;;;0.28;;
74593;SDS011;63097;51.872;4.460;2023-04-03T11:15:40;1.23;;;0.50;;
74593;SDS011;63097;51.872;4.460;2023-04-03T11:18:14;2.72;;;0.35;;
74593;SDS011;63097;51.872;4.460;2023-04-03T11:20:45;1.75;;;0.50;;
74593;SDS011;63097;51.872;4.460;2023-04-03T11:23:28;2.33;;;0.40;;
74593;SDS011;63097;51.872;4.460;2023-04-03T11:25:58;0.93;;;0.40;;
74593;SDS011;63097;51.872;4.460;2023-04-03T11:28:32;1.80;;;0.50;;
74593;SDS011;63097;51.872;4.460;2023-04-03T11:38:45;1.77;;;0.40;;
74593;SDS011;63097;51.872;4.460;2023-04-03T11:41:14;1.40;;;0.57;;
74593;SDS011;63097;51.872;4.460;2023-04-03T11:43:41;2.28;;;0.60;;
74593;SDS011;63097;51.872;4.460;2023-04-03T11:55:52;3.63;;;0.50;;
74593;SDS011;63097;51.872;4.460;2023-04-03T12:06:41;1.85;;;0.60;;
74593;SDS011;63097;51.872;4.460;2023-04-03T12:13:38;2.70;;;0.68;;
74593;SDS011;63097;51.872;4.460;2023-04-03T12:16:05;2.05;;;0.60;;
74593;SDS011;63097;51.872;4.460;2023-04-03T12:21:16;2.40;;;0.50;;
74593;SDS011;63097;51.872;4.460;2023-04-03T12:26:24;2.30;;;0.75;;
74593;SDS011;63097;51.872;4.460;2023-04-03T12:28:52;1.95;;;0.60;;
74593;SDS011;63097;51.872;4.460;2023-04-03T12:31:19;2.38;;;0.50;;
74593;SDS011;63097;51.872;4.460;2023-04-03T12:33:57;4.40;;;0.60;;
74593;SDS011;63097;51.872;4.460;2023-04-03T12:36:34;7.07;;;0.60;;
74593;SDS011;63097;51.872;4.460;2023-04-03T12:39:22;4.55;;;0.60;;
74593;SDS011;63097;51.872;4.460;2023-04-03T12:42:18;2.97;;;0.80;;
74593;SDS011;63097;51.872;4.460;2023-04-03T12:47:37;2.15;;;0.47;;
74593;SDS011;63097;51.872;4.460;2023-04-03T12:55:58;5.55;;;0.70;;
74593;SDS011;63097;51.872;4.460;2023-04-03T12:58:45;2.00;;;0.75;;
74593;SDS011;63097;51.872;4.460;2023-04-03T13:01:14;2.60;;;0.55;;
74593;SDS011;63097;51.872;4.460;2023-04-03T13:03:43;1.90;;;0.55;;
74593;SDS011;63097;51.872;4.460;2023-04-03T13:06:11;5.03;;;0.60;;
74593;SDS011;63097;51.872;4.460;2023-04-03T13:11:17;1.75;;;0.60;;
74593;SDS011;63097;51.872;4.460;2023-04-03T13:13:58;0.93;;;0.60;;
74593;SDS011;63097;51.872;4.460;2023-04-03T13:16:27;5.30;;;0.80;;
74593;SDS011;63097;51.872;4.460;2023-04-03T13:18:53;5.05;;;0.80;;
74593;SDS011;63097;51.872;4.460;2023-04-03T13:21:20;5.32;;;0.80;;
74593;SDS011;63097;51.872;4.460;2023-04-03T13:23:50;4.50;;;0.70;;
74593;SDS011;63097;51.872;4.460;2023-04-03T13:26:18;4.75;;;0.77;;
74593;SDS011;63097;51.872;4.460;2023-04-03T13:28:46;2.65;;;0.80;;
74593;SDS011;63097;51.872;4.460;2023-04-03T13:33:37;3.67;;;1.30;;
74593;SDS011;63097;51.872;4.460;2023-04-03T13:36:04;6.20;;;1.20;;
74593;SDS011;63097;51.872;4.460;2023-04-03T13:38:42;3.15;;;0.98;;
74593;SDS011;63097;51.872;4.460;2023-04-03T13:41:25;3.45;;;1.10;;
74593;SDS011;63097;51.872;4.460;2023-04-03T13:43:55;4.07;;;1.05;;
74593;SDS011;63097;51.872;4.460;2023-04-03T13:46:27;2.65;;;0.90;;
74593;SDS011;63097;51.872;4.460;2023-04-03T13:48:54;2.42;;;1.13;;
74593;SDS011;63097;51.872;4.460;2023-04-03T13:51:22;3.95;;;0.98;;
74593;SDS011;63097;51.872;4.460;2023-04-03T13:56:23;4.05;;;1.00;;
74593;SDS011;63097;51.872;4.460;2023-04-03T13:59:00;3.50;;;0.93;;
74593;SDS011;63097;51.872;4.460;2023-04-03T14:01:41;3.17;;;1.10;;
74593;SDS011;63097;51.872;4.460;2023-04-03T14:04:18;5.35;;;1.30;;
74593;SDS011;63097;51.872;4.460;2023-04-03T14:06:46;3.20;;;1.00;;
74593;SDS011;63097;51.872;4.460;2023-04-03T14:09:12;2.53;;;1.00;;
74593;SDS011;63097;51.872;4.460;2023-04-03T14:11:39;4.40;;;1.20;;
74593;SDS011;63097;51.872;4.460;2023-04-03T14:14:09;5.47;;;1.20;;
74593;SDS011;63097;51.872;4.460;2023-04-03T14:16:40;6.72;;;1.10;;
74593;SDS011;63097;51.872;4.460;2023-04-03T14:19:13;4.80;;;1.02;;
74593;SDS011;63097;51.872;4.460;2023-04-03T14:21:45;2.78;;;1.17;;
74593;SDS011;63097;51.872;4.460;2023-04-03T14:24:11;2.70;;;1.20;;
74593;SDS011;63097;51.872;4.460;2023-04-03T14:26:36;2.72;;;1.23;;
74593;SDS011;63097;51.872;4.460;2023-04-03T14:29:02;2.47;;;1.27;;
74593;SDS011;63097;51.872;4.460;2023-04-03T14:31:27;5.68;;;1.00;;
74593;SDS011;63097;51.872;4.460;2023-04-03T14:33:53;2.60;;;1.00;;
74593;SDS011;63097;51.872;4.460;2023-04-03T14:36:22;4.03;;;1.20;;
74593;SDS011;63097;51.872;4.460;2023-04-03T14:38:49;3.70;;;0.93;;
74593;SDS011;63097;51.872;4.460;2023-04-03T14:41:17;16.73;;;6.68;;
74593;SDS011;63097;51.872;4.460;2023-04-03T14:43:44;2.42;;;1.10;;
74593;SDS011;63097;51.872;4.460;2023-04-03T14:46:12;2.75;;;1.10;;
74593;SDS011;63097;51.872;4.460;2023-04-03T14:48:39;4.40;;;0.93;;
74593;SDS011;63097;51.872;4.460;2023-04-03T14:51:05;2.53;;;1.08;;
74593;SDS011;63097;51.872;4.460;2023-04-03T14:53:30;4.38;;;1.38;;
74593;SDS011;63097;51.872;4.460;2023-04-03T14:55:56;4.90;;;1.40;;
74593;SDS011;63097;51.872;4.460;2023-04-03T14:58:21;2.13;;;0.90;;
74593;SDS011;63097;51.872;4.460;2023-04-03T15:00:46;6.20;;;1.10;;
74593;SDS011;63097;51.872;4.460;2023-04-03T15:03:13;2.63;;;1.17;;
74593;SDS011;63097;51.872;4.460;2023-04-03T15:05:43;9.02;;;1.00;;
74593;SDS011;63097;51.872;4.460;2023-04-03T15:08:20;5.28;;;1.55;;
74593;SDS011;63097;51.872;4.460;2023-04-03T15:10:50;5.18;;;1.20;;
74593;SDS011;63097;51.872;4.460;2023-04-03T15:13:16;6.50;;;1.45;;
74593;SDS011;63097;51.872;4.460;2023-04-03T15:15:42;3.75;;;1.30;;
74593;SDS011;63097;51.872;4.460;2023-04-03T15:18:10;9.07;;;1.15;;
74593;SDS011;63097;51.872;4.460;2023-04-03T15:20:45;4.38;;;1.33;;
74593;SDS011;63097;51.872;4.460;2023-04-03T15:23:12;5.00;;;1.52;;
74593;SDS011;63097;51.872;4.460;2023-04-03T15:25:38;8.82;;;1.35;;
74593;SDS011;63097;51.872;4.460;2023-04-03T15:28:04;4.25;;;1.13;;
74593;SDS011;63097;51.872;4.460;2023-04-03T15:30:30;4.03;;;1.52;;
74593;SDS011;63097;51.872;4.460;2023-04-03T15:32:55;6.30;;;1.40;;
74593;SDS011;63097;51.872;4.460;2023-04-03T15:35:21;5.20;;;1.52;;
74593;SDS011;63097;51.872;4.460;2023-04-03T15:37:46;2.80;;;0.95;;
74593;SDS011;63097;51.872;4.460;2023-04-03T15:40:12;6.57;;;1.30;;
74593;SDS011;63097;51.872;4.460;2023-04-03T15:42:37;3.30;;;1.27;;
74593;SDS011;63097;51.872;4.460;2023-04-03T15:45:03;5.03;;;1.40;;
74593;SDS011;63097;51.872;4.460;2023-04-03T15:47:29;3.72;;;1.35;;
74593;SDS011;63097;51.872;4.460;2023-04-03T15:49:55;5.80;;;1.45;;
74593;SDS011;63097;51.872;4.460;2023-04-03T15:52:20;5.88;;;1.42;;
74593;SDS011;63097;51.872;4.460;2023-04-03T15:54:46;3.33;;;1.40;;
74593;SDS011;63097;51.872;4.460;2023-04-03T15:57:11;6.63;;;1.40;;
74593;SDS011;63097;51.872;4.460;2023-04-03T15:59:36;3.92;;;1.42;;
74593;SDS011;63097;51.872;4.460;2023-04-03T16:02:02;4.90;;;1.73;;
74593;SDS011;63097;51.872;4.460;2023-04-03T16:04:31;3.85;;;1.42;;
74593;SDS011;63097;51.872;4.460;2023-04-03T16:06:59;4.13;;;1.30;;
74593;SDS011;63097;51.872;4.460;2023-04-03T16:09:26;4.40;;;1.10;;
74593;SDS011;63097;51.872;4.460;2023-04-03T16:11:51;6.18;;;1.30;;
74593;SDS011;63097;51.872;4.460;2023-04-03T16:14:17;10.32;;;1.58;;
74593;SDS011;63097;51.872;4.460;2023-04-03T16:16:42;4.60;;;1.20;;
74593;SDS011;63097;51.872;4.460;2023-04-03T16:19:07;16.13;;;3.45;;
74593;SDS011;63097;51.872;4.460;2023-04-03T16:21:34;5.15;;;1.50;;
74593;SDS011;63097;51.872;4.460;2023-04-03T16:23:59;9.13;;;1.50;;
74593;SDS011;63097;51.872;4.460;2023-04-03T16:26:26;8.43;;;1.63;;
74593;SDS011;63097;51.872;4.460;2023-04-03T16:28:52;4.78;;;1.50;;
74593;SDS011;63097;51.872;4.460;2023-04-03T16:31:18;4.32;;;1.65;;
74593;SDS011;63097;51.872;4.460;2023-04-03T16:33:44;4.22;;;1.30;;